Главная страница
METAR-TAF:

METAR-TAF

Аэропорты :

Багдад, Ирак

широта: 33-15-45N, долгота: 44-14-04E, высота над уровнем моря: 35 м

Текущие метеонаблюдения

Эта сводка был подготовлена 2 часа и 42 минут назад, в 00:00 UTC
Ветер 5 Узел от северо-восточный
Температура 16°C
Влажность 77%
Давление 1019 hPa
Видимость 10 км и более
небольшая облачность на высоте 3000 фута
Отдельные облака на высоте 10000 фута

METAR: ORBI 270000Z 04005KT 9999 FEW030 SCT100 16/12 Q1019 NOSIG

Время: 05:42 (02:42 UTC)

Прогноз

Эта сводка был подготовлена 4 часа и 42 минут назад, в 22:00 UTC
Прогноз действительный с 27-го 00 UTC до 27-го 24 UTC
Ветер 8 Узел от северный
Видимость: 7000 м
Отдельные облака на высоте 3000 фута
Отдельные облака на высоте 8000 фута

TAF: ORBI 262200Z 2700/2724 35008KT 7000 SCT030 SCT080

Метеонаблюдения и прогнозы для более 4000 аэропортов (сводки METAR и TAF).

Имеющиеся станции представлены на карте желтыми и красными точками.

Чтобы увидеть название станции, наведите на нее мышь.

Затем щелкните, чтобы увидеть метеонаблюдения и метеопрогнозы.

Управление картой: чтобы увеличить масштаб, щелкните зеленые кнопки с черным крестиком; чтобы уменьшить масштаб, щелкните зеленую кнопку с тире; для просмотра соседних карт щелкайте зеленые стрелки.


METAR-TAF: